Time;durP1;ratioP1;P1;durP2;ratioP2;P2;SDS_P1;SDS_P2;PMS_P1;PMS_P2;Temp;Humidity;BMP_temperature;BMP_pressure;BME280_temperature;BME280_humidity;BME280_pressure;Samples;Min_cycle;Max_cycle;Signal;HPM_P1;HPM_P2
2022/04/06 00:00:18;;;;;;;9.95;4.72;;;10.60;99.90;;;;;;5009168;28;20435;-51
2022/04/06 00:02:44;;;;;;;8.10;4.70;;;10.60;99.90;;;;;;5010449;28;20746;-51
2022/04/06 00:05:10;;;;;;;8.25;4.53;;;10.60;99.90;;;;;;5012913;28;20861;-51
2022/04/06 00:07:37;;;;;;;8.15;4.50;;;10.50;99.90;;;;;;5013318;28;20384;-51
2022/04/06 00:10:04;;;;;;;8.43;4.68;;;10.60;99.90;;;;;;5012368;28;20410;-51
2022/04/06 00:12:31;;;;;;;9.57;4.90;;;10.60;99.90;;;;;;5023499;28;20406;-51
2022/04/06 00:14:57;;;;;;;7.40;4.20;;;10.60;99.90;;;;;;5021735;28;20419;-51
2022/04/06 00:17:22;;;;;;;9.07;4.32;;;10.50;99.90;;;;;;4994376;28;20890;-51
2022/04/06 00:19:48;;;;;;;8.50;4.20;;;10.40;99.90;;;;;;5013589;28;20419;-51
2022/04/06 00:22:14;;;;;;;7.13;3.95;;;10.30;99.90;;;;;;5012145;28;20393;-51
2022/04/06 00:24:39;;;;;;;10.70;4.90;;;10.30;99.90;;;;;;5013282;28;20413;-51
2022/04/06 00:27:05;;;;;;;8.95;4.50;;;10.40;99.90;;;;;;5012230;28;20405;-51
2022/04/06 00:29:31;;;;;;;8.03;4.57;;;10.40;99.90;;;;;;5012132;28;20548;-51
2022/04/06 00:31:57;;;;;;;7.80;4.20;;;10.40;99.90;;;;;;5012281;28;20401;-51
2022/04/06 00:35:28;;;;;;;8.07;4.00;;;10.30;99.90;;;;;;5012125;28;20446;-51
2022/04/06 00:37:08;;;;;;;8.27;4.30;;;10.40;99.90;;;;;;4992306;28;20390;-51
2022/04/06 00:39:34;;;;;;;8.07;4.20;;;10.50;99.90;;;;;;5002815;28;20820;-51
2022/04/06 00:41:59;;;;;;;7.57;4.22;;;10.50;99.90;;;;;;5011554;28;20416;-51
2022/04/06 00:44:27;;;;;;;8.33;4.50;;;10.60;99.90;;;;;;5012181;28;20439;-51
2022/04/06 00:46:53;;;;;;;9.10;4.30;;;10.50;99.90;;;;;;5012756;28;20412;-51
2022/04/06 00:49:18;;;;;;;7.70;4.20;;;10.50;99.90;;;;;;5011912;28;20393;-52
2022/04/06 00:51:46;;;;;;;9.85;4.45;;;10.50;99.90;;;;;;4995001;28;20420;-51
2022/04/06 00:54:16;;;;;;;8.55;4.22;;;10.50;99.90;;;;;;5011431;28;20447;-51
2022/04/06 00:56:44;;;;;;;7.70;4.27;;;10.50;99.90;;;;;;5008080;28;20384;-51
2022/04/06 00:59:10;;;;;;;7.88;3.80;;;10.60;99.90;;;;;;5011571;28;20380;-51
2022/04/06 01:01:36;;;;;;;7.30;3.80;;;10.60;99.90;;;;;;5011823;28;20388;-52
2022/04/06 01:04:02;;;;;;;8.30;4.47;;;10.60;99.90;;;;;;5011008;28;20393;-51
2022/04/06 01:06:28;;;;;;;8.20;4.40;;;10.60;99.90;;;;;;5012379;28;20735;-51
2022/04/06 01:08:54;;;;;;;7.80;4.20;;;10.60;99.90;;;;;;5011547;28;20870;-51
2022/04/06 01:11:20;;;;;;;8.40;4.80;;;10.70;99.90;;;;;;5011337;28;20832;-51
2022/04/06 01:13:49;;;;;;;7.93;4.60;;;10.70;99.90;;;;;;5012226;28;20870;-51
2022/04/06 01:16:15;;;;;;;8.50;4.53;;;10.80;99.90;;;;;;5011673;28;20463;-51
2022/04/06 01:18:41;;;;;;;7.20;4.40;;;10.90;99.90;;;;;;5012627;28;20464;-51
2022/04/06 01:21:07;;;;;;;8.10;4.90;;;10.90;99.90;;;;;;5010768;28;20400;-51
2022/04/06 01:23:33;;;;;;;8.53;4.90;;;10.90;99.90;;;;;;5011402;28;20748;-51
2022/04/06 01:25:59;;;;;;;8.63;4.57;;;10.90;99.90;;;;;;5010605;28;20515;-51
2022/04/06 01:28:26;;;;;;;9.45;4.85;;;10.90;99.90;;;;;;5012134;28;20389;-51
2022/04/06 01:30:51;;;;;;;8.52;4.97;;;10.90;99.90;;;;;;5011530;28;20388;-51
2022/04/06 01:33:17;;;;;;;9.18;5.30;;;10.80;99.90;;;;;;5009966;28;20401;-51
2022/04/06 01:35:43;;;;;;;8.25;5.00;;;10.70;99.90;;;;;;5010869;28;20475;-51
2022/04/06 01:38:09;;;;;;;10.07;5.57;;;10.70;99.90;;;;;;5010784;28;20408;-51
2022/04/06 01:40:35;;;;;;;8.80;5.10;;;10.70;99.90;;;;;;5011494;28;20420;-51
2022/04/06 01:43:01;;;;;;;8.48;4.90;;;10.70;99.90;;;;;;5011024;28;20459;-52
2022/04/06 01:45:27;;;;;;;8.70;4.80;;;10.80;99.90;;;;;;5011181;28;20914;-51
2022/04/06 01:47:53;;;;;;;8.97;5.10;;;10.70;99.90;;;;;;5011871;28;20401;-52
2022/04/06 01:53:04;;;;;;;8.40;5.07;;;10.70;99.90;;;;;;5006274;28;20453;-51
2022/04/06 01:55:30;;;;;;;9.25;5.30;;;10.80;99.90;;;;;;5031192;28;20391;-51
2022/04/06 01:57:56;;;;;;;9.55;5.47;;;10.80;99.90;;;;;;5018316;28;20468;-51
2022/04/06 02:00:22;;;;;;;8.15;4.93;;;10.80;99.90;;;;;;5011253;28;20384;-51
2022/04/06 02:02:49;;;;;;;8.60;5.10;;;10.80;99.90;;;;;;4994649;28;20402;-51
2022/04/06 02:05:16;;;;;;;7.70;4.50;;;10.70;99.90;;;;;;5004922;28;20450;-51
2022/04/06 02:07:42;;;;;;;7.90;4.90;;;10.70;99.90;;;;;;5008835;28;20377;-51
2022/04/06 02:10:09;;;;;;;8.30;5.13;;;10.70;99.90;;;;;;4990552;28;20390;-51
2022/04/06 02:12:35;;;;;;;8.95;5.00;;;10.70;99.90;;;;;;4991703;28;20417;-52
2022/04/06 02:15:01;;;;;;;9.10;5.13;;;10.70;99.90;;;;;;4991409;28;20476;-51
2022/04/06 02:17:29;;;;;;;9.40;5.43;;;10.70;99.90;;;;;;4991061;28;20394;-51
2022/04/06 02:19:56;;;;;;;9.30;5.07;;;10.70;99.90;;;;;;4973946;28;20922;-52
2022/04/06 02:22:22;;;;;;;10.02;5.10;;;10.70;99.90;;;;;;5009948;28;20396;-52
2022/04/06 02:24:48;;;;;;;10.77;5.57;;;10.70;99.90;;;;;;5001017;28;20387;-51
2022/04/06 02:27:14;;;;;;;9.60;5.85;;;10.60;99.90;;;;;;5029149;28;20403;-52
2022/04/06 02:29:40;;;;;;;9.85;5.55;;;10.50;99.90;;;;;;5010845;28;20458;-52
2022/04/06 02:32:08;;;;;;;9.65;5.50;;;10.50;99.90;;;;;;5008828;28;20396;-51
2022/04/06 02:34:34;;;;;;;9.85;6.00;;;10.20;99.90;;;;;;5008779;28;20396;-51
2022/04/06 02:37:00;;;;;;;11.43;6.30;;;10.20;99.90;;;;;;5010466;28;20858;-51
2022/04/06 02:39:26;;;;;;;10.75;6.88;;;10.20;99.90;;;;;;4997281;28;20401;-52
2022/04/06 02:41:53;;;;;;;11.52;6.38;;;10.20;99.90;;;;;;5030010;28;20379;-51
2022/04/06 02:44:19;;;;;;;12.05;6.70;;;10.30;99.90;;;;;;5022870;28;20389;-52
2022/04/06 02:46:47;;;;;;;11.65;7.05;;;10.20;99.90;;;;;;5010383;28;20496;-51
2022/04/06 02:49:14;;;;;;;11.48;7.00;;;10.20;99.90;;;;;;5009528;28;20404;-51
2022/04/06 02:51:40;;;;;;;12.98;7.90;;;10.20;99.90;;;;;;4996330;28;20406;-51
2022/04/06 02:54:06;;;;;;;11.23;7.47;;;10.20;99.90;;;;;;4990047;28;20382;-51
2022/04/06 02:56:32;;;;;;;12.07;7.65;;;10.10;99.90;;;;;;4991456;28;20433;-52
2022/04/06 02:58:57;;;;;;;14.50;7.70;;;10.20;99.90;;;;;;4990421;28;20899;-52
2022/04/06 03:01:23;;;;;;;10.25;6.93;;;10.10;99.90;;;;;;4997340;28;20417;-52
2022/04/06 03:03:49;;;;;;;11.90;7.20;;;10.10;99.90;;;;;;5025297;28;20956;-52
2022/04/06 03:06:15;;;;;;;11.70;7.35;;;10.10;99.90;;;;;;5027037;28;20904;-52
2022/04/06 03:08:41;;;;;;;11.93;6.63;;;10.10;99.90;;;;;;5010114;28;20386;-54
2022/04/06 03:11:06;;;;;;;11.10;7.00;;;10.20;99.90;;;;;;5009412;28;20385;-52
2022/04/06 03:13:33;;;;;;;11.90;6.20;;;10.20;99.90;;;;;;5010379;28;20396;-52
2022/04/06 03:16:01;;;;;;;11.43;6.88;;;10.20;99.90;;;;;;5010021;28;20389;-52
2022/04/06 03:18:26;;;;;;;11.75;6.93;;;10.10;99.90;;;;;;5009558;28;20481;-52
2022/04/06 03:20:52;;;;;;;11.93;6.70;;;10.20;99.90;;;;;;4993884;28;20414;-51
2022/04/06 03:23:18;;;;;;;12.52;6.90;;;10.10;99.90;;;;;;4996260;28;20898;-52
2022/04/06 03:25:44;;;;;;;13.50;7.90;;;10.20;99.90;;;;;;5009863;28;20401;-52
2022/04/06 03:28:09;;;;;;;10.75;6.80;;;10.20;99.90;;;;;;5003575;28;20777;-52
2022/04/06 03:30:36;;;;;;;12.07;6.80;;;10.10;99.90;;;;;;4990539;28;20382;-52
2022/04/06 03:33:02;;;;;;;13.90;7.60;;;10.10;99.90;;;;;;4994342;28;20455;-51
2022/04/06 03:35:28;;;;;;;11.75;7.07;;;10.10;99.90;;;;;;5003861;28;20874;-52
2022/04/06 03:37:53;;;;;;;12.27;6.67;;;10.10;99.90;;;;;;5010358;28;20758;-51
2022/04/06 03:40:20;;;;;;;11.73;6.63;;;10.10;99.90;;;;;;4994405;28;20405;-51
2022/04/06 03:42:46;;;;;;;11.32;7.10;;;10.10;99.90;;;;;;4995142;28;20378;-51
2022/04/06 03:45:12;;;;;;;12.15;6.97;;;10.10;99.90;;;;;;5012836;28;20413;-51
2022/04/06 03:47:40;;;;;;;12.57;6.50;;;10.10;99.90;;;;;;5013979;28;20470;-52
2022/04/06 03:50:06;;;;;;;13.40;7.00;;;10.10;99.90;;;;;;5004784;28;20403;-51
2022/04/06 03:52:32;;;;;;;11.10;6.25;;;10.10;99.90;;;;;;5033556;28;20399;-51
2022/04/06 03:54:57;;;;;;;11.73;6.90;;;10.10;99.90;;;;;;5012472;28;20402;-51
2022/04/06 03:57:25;;;;;;;12.45;7.15;;;10.10;99.90;;;;;;5032887;28;20465;-50
2022/04/06 03:59:51;;;;;;;10.50;6.57;;;10.10;99.90;;;;;;5023988;28;20428;-51
2022/04/06 04:02:16;;;;;;;10.90;6.90;;;10.10;99.90;;;;;;5011983;28;20447;-50
2022/04/06 04:04:42;;;;;;;12.00;6.60;;;10.10;99.90;;;;;;5013270;28;20399;-50
2022/04/06 04:07:08;;;;;;;10.40;6.10;;;10.20;99.90;;;;;;4995065;28;20415;-50
2022/04/06 04:09:35;;;;;;;10.80;7.10;;;10.20;99.90;;;;;;5013517;28;20397;-51
2022/04/06 04:12:02;;;;;;;11.23;7.00;;;10.20;99.90;;;;;;5012541;28;20404;-50
2022/04/06 04:14:31;;;;;;;10.45;6.90;;;10.20;99.90;;;;;;5006711;28;20404;-52
2022/04/06 04:16:58;;;;;;;10.75;6.68;;;10.20;99.90;;;;;;5011200;28;20497;-50
2022/04/06 04:19:23;;;;;;;13.60;7.20;;;10.20;99.90;;;;;;5006983;28;21032;-51
2022/04/06 04:21:49;;;;;;;11.57;7.57;;;10.30;99.90;;;;;;5007871;28;20495;-51
2022/04/06 04:24:14;;;;;;;10.97;6.90;;;10.20;99.90;;;;;;4985153;28;20422;-51
2022/04/06 04:26:40;;;;;;;12.35;7.05;;;10.00;99.90;;;;;;5004567;28;20778;-52
2022/04/06 04:29:07;;;;;;;12.17;8.00;;;10.00;99.90;;;;;;5012428;28;20858;-52
2022/04/06 04:31:33;;;;;;;17.27;7.38;;;10.00;99.90;;;;;;5003241;28;20412;-52
2022/04/06 04:34:00;;;;;;;11.68;6.93;;;10.10;99.90;;;;;;4993129;28;20771;-51
2022/04/06 04:36:26;;;;;;;13.80;7.60;;;10.00;99.90;;;;;;5007628;28;21001;-52
2022/04/06 04:38:52;;;;;;;12.63;7.20;;;10.10;99.90;;;;;;4999529;28;20406;-51
2022/04/06 04:41:18;;;;;;;13.30;6.90;;;9.90;99.90;;;;;;5001633;28;20398;-52
2022/04/06 04:43:43;;;;;;;10.65;6.82;;;9.90;99.90;;;;;;5003342;28;20391;-52
2022/04/06 04:46:09;;;;;;;12.50;6.80;;;9.90;99.90;;;;;;5009043;28;20420;-52
2022/04/06 04:48:36;;;;;;;11.38;6.90;;;10.00;99.90;;;;;;5001737;28;20468;-51
2022/04/06 04:51:02;;;;;;;10.07;6.10;;;10.10;99.90;;;;;;4975913;28;20425;-51
2022/04/06 04:53:27;;;;;;;11.07;6.30;;;9.90;99.90;;;;;;5011348;28;20399;-51
2022/04/06 04:55:54;;;;;;;10.45;6.38;;;9.90;99.90;;;;;;5008215;28;20863;-52
2022/04/06 04:58:20;;;;;;;11.13;6.45;;;10.00;99.90;;;;;;5005323;28;20467;-52
2022/04/06 05:00:46;;;;;;;12.88;6.60;;;9.90;99.90;;;;;;4998065;28;20396;-51
2022/04/06 05:03:12;;;;;;;13.70;5.90;;;9.90;99.90;;;;;;4999743;28;20406;-51
2022/04/06 05:05:40;;;;;;;10.23;6.60;;;9.90;99.90;;;;;;5007194;28;20471;-52
2022/04/06 05:08:06;;;;;;;11.82;7.03;;;9.80;99.90;;;;;;4982241;28;20415;-52
2022/04/06 05:10:32;;;;;;;11.55;6.13;;;9.90;99.90;;;;;;5004615;28;20398;-52
2022/04/06 05:12:58;;;;;;;13.13;7.00;;;9.90;99.90;;;;;;4996300;28;20453;-52
2022/04/06 05:15:24;;;;;;;10.57;6.20;;;9.90;99.90;;;;;;5006375;28;21045;-52
2022/04/06 05:17:49;;;;;;;12.17;7.10;;;9.90;99.90;;;;;;4997885;28;20477;-52
2022/04/06 05:20:15;;;;;;;11.55;7.10;;;9.90;99.90;;;;;;5004884;28;20411;-52
2022/04/06 05:22:41;;;;;;;11.70;7.30;;;10.00;99.90;;;;;;5009806;28;20416;-52
2022/04/06 05:25:08;;;;;;;11.60;6.40;;;10.10;99.90;;;;;;4994782;28;20956;-52
2022/04/06 05:27:44;;;;;;;11.70;6.60;;;10.10;99.90;;;;;;5008043;28;20433;-52
2022/04/06 05:30:11;;;;;;;9.93;6.43;;;10.10;99.90;;;;;;4999654;28;20443;-52
2022/04/06 05:32:37;;;;;;;12.35;7.13;;;10.20;99.90;;;;;;5012087;28;20747;-52
2022/04/06 05:35:03;;;;;;;11.63;6.60;;;10.20;99.90;;;;;;4998344;28;20958;-52
2022/04/06 05:37:32;;;;;;;12.20;6.78;;;10.30;99.90;;;;;;5000053;28;20413;-52
2022/04/06 05:39:58;;;;;;;12.00;6.90;;;10.30;99.90;;;;;;4983990;28;20420;-51
2022/04/06 05:42:23;;;;;;;13.60;7.63;;;10.20;99.90;;;;;;5008602;28;21170;-51
2022/04/06 05:44:49;;;;;;;12.52;6.65;;;10.40;99.90;;;;;;4998150;28;20580;-51
2022/04/06 05:47:14;;;;;;;14.97;6.80;;;10.40;99.90;;;;;;4994649;28;20421;-52
2022/04/06 05:49:40;;;;;;;11.93;7.00;;;10.40;99.90;;;;;;5006025;28;20827;-52
2022/04/06 05:52:06;;;;;;;11.30;6.80;;;10.40;99.90;;;;;;5005623;28;20766;-52
2022/04/06 05:54:31;;;;;;;12.27;6.68;;;10.60;99.90;;;;;;4999117;28;20391;-51
2022/04/06 05:56:57;;;;;;;13.30;6.80;;;10.70;99.90;;;;;;5031191;28;20890;-52
2022/04/06 05:59:23;;;;;;;10.73;7.15;;;10.70;99.90;;;;;;5016698;28;20408;-52
2022/04/06 06:01:48;;;;;;;11.20;7.10;;;10.70;99.90;;;;;;4995878;28;20394;-52
2022/04/06 06:04:14;;;;;;;11.52;6.80;;;10.70;99.90;;;;;;5003357;28;20884;-51
2022/04/06 06:06:40;;;;;;;11.23;6.60;;;10.80;99.90;;;;;;5007138;28;20424;-52
2022/04/06 06:09:05;;;;;;;10.30;6.77;;;10.70;99.90;;;;;;5008131;28;20487;-52
2022/04/06 06:11:31;;;;;;;10.77;6.43;;;10.80;99.90;;;;;;5007814;28;20396;-52
2022/04/06 06:13:56;;;;;;;10.77;6.40;;;10.70;99.90;;;;;;5007015;28;20406;-51
2022/04/06 06:16:24;;;;;;;10.52;6.00;;;10.60;99.90;;;;;;5008108;28;20417;-51
2022/04/06 06:18:50;;;;;;;10.87;6.60;;;10.70;99.90;;;;;;5010251;28;20392;-51
2022/04/06 06:21:27;;;;;;;11.38;6.00;;;10.80;99.90;;;;;;5122748;27;20417;-50
2022/04/06 06:23:59;;;;;;;11.07;6.80;;;10.80;99.90;;;;;;5104948;28;20420;-51
2022/04/06 06:26:24;;;;;;;11.50;6.20;;;11.10;99.90;;;;;;5098149;28;20453;-51
2022/04/06 06:28:50;;;;;;;9.00;5.65;;;11.30;99.90;;;;;;5107385;28;20839;-51
2022/04/06 06:31:15;;;;;;;10.90;6.33;;;11.30;99.90;;;;;;5106423;28;20839;-51
2022/04/06 06:33:41;;;;;;;9.67;5.90;;;11.30;99.90;;;;;;5089725;28;20391;-51
2022/04/06 06:36:07;;;;;;;10.70;5.55;;;11.10;99.90;;;;;;5086732;28;20379;-51
2022/04/06 06:38:33;;;;;;;9.77;5.40;;;11.00;99.90;;;;;;5091435;28;20926;-50
2022/04/06 06:40:58;;;;;;;10.00;5.30;;;11.00;99.90;;;;;;5101139;28;20758;-51
2022/04/06 06:43:24;;;;;;;9.00;3.97;;;11.20;99.90;;;;;;5106240;28;20468;-51
2022/04/06 06:45:49;;;;;;;8.32;3.92;;;11.10;99.90;;;;;;5102218;28;20381;-52
2022/04/06 06:48:15;;;;;;;7.40;3.70;;;11.00;99.90;;;;;;5098788;28;20951;-51
2022/04/06 06:50:41;;;;;;;7.95;4.22;;;11.10;99.90;;;;;;5097080;28;20911;-51
2022/04/06 06:53:07;;;;;;;9.30;4.70;;;11.20;99.90;;;;;;5104607;28;20880;-51
2022/04/06 06:55:33;;;;;;;10.98;4.70;;;11.10;99.90;;;;;;5096136;28;20395;-51
2022/04/06 06:57:58;;;;;;;8.80;4.60;;;11.40;99.90;;;;;;5100424;28;20748;-51
2022/04/06 07:00:24;;;;;;;8.13;4.60;;;11.50;99.90;;;;;;5102468;28;20546;-51
2022/04/06 07:02:50;;;;;;;8.70;3.92;;;11.60;99.90;;;;;;5103344;28;20404;-51
2022/04/06 07:05:15;;;;;;;8.63;4.90;;;11.30;99.90;;;;;;5101394;28;20402;-51
2022/04/06 07:08:07;;;;;;;9.30;4.40;;;11.30;99.90;;;;;;5102837;28;20391;-51
2022/04/06 07:10:33;;;;;;;8.10;4.30;;;11.30;99.90;;;;;;5094023;28;20404;-51
2022/04/06 07:12:59;;;;;;;8.07;4.15;;;11.30;99.90;;;;;;5102309;28;20389;-51
2022/04/06 07:15:25;;;;;;;9.47;4.10;;;11.30;99.90;;;;;;5099780;28;20459;-51
2022/04/06 07:17:56;;;;;;;7.50;3.80;;;11.30;99.90;;;;;;5098440;28;20494;-51
2022/04/06 07:20:29;;;;;;;7.82;3.97;;;11.40;99.90;;;;;;5103160;28;20433;-51
2022/04/06 07:22:54;;;;;;;6.77;3.33;;;11.30;99.90;;;;;;5091834;28;20397;-51
2022/04/06 07:25:20;;;;;;;7.65;3.40;;;11.30;99.90;;;;;;5102907;28;20909;-51
2022/04/06 07:27:46;;;;;;;6.63;2.60;;;11.40;99.90;;;;;;5102254;28;20735;-51
2022/04/06 07:30:13;;;;;;;7.47;3.30;;;11.50;99.90;;;;;;5096694;28;20412;-51
2022/04/06 07:32:39;;;;;;;6.75;2.90;;;11.50;99.90;;;;;;5087378;28;20507;-51
2022/04/06 07:35:06;;;;;;;6.17;2.70;;;11.50;99.90;;;;;;5087942;28;20485;-51
2022/04/06 07:37:43;;;;;;;10.07;2.77;;;11.40;99.90;;;;;;5089556;28;20394;-51
2022/04/06 07:40:11;;;;;;;7.15;2.75;;;11.50;99.90;;;;;;5087572;28;20414;-52
2022/04/06 07:42:38;;;;;;;6.47;3.27;;;11.60;99.90;;;;;;5086328;28;20408;-51
2022/04/06 07:45:07;;;;;;;7.28;3.35;;;11.70;99.90;;;;;;5086303;28;20398;-51
2022/04/06 07:47:33;;;;;;;6.82;3.15;;;11.80;99.90;;;;;;5089754;28;20397;-51
2022/04/06 07:50:00;;;;;;;6.82;3.40;;;12.00;99.90;;;;;;5074902;28;20408;-52
2022/04/06 07:52:27;;;;;;;6.63;3.50;;;12.30;99.90;;;;;;5087445;28;20402;-51
2022/04/06 07:54:53;;;;;;;7.60;3.40;;;12.30;99.90;;;;;;5085754;28;20421;-51
2022/04/06 07:57:24;;;;;;;6.40;2.93;;;12.30;99.90;;;;;;5084730;28;20948;-51
2022/04/06 07:59:50;;;;;;;6.43;3.20;;;12.50;99.90;;;;;;5084284;28;20457;-51
2022/04/06 08:02:16;;;;;;;7.50;3.38;;;12.50;99.90;;;;;;5088928;28;20417;-51
2022/04/06 08:04:42;;;;;;;6.72;3.60;;;12.60;99.90;;;;;;5086424;28;20400;-51
2022/04/06 08:07:08;;;;;;;7.27;3.50;;;12.60;99.90;;;;;;5085912;28;20385;-51
2022/04/06 08:09:34;;;;;;;8.10;3.58;;;12.80;99.90;;;;;;5089012;28;20467;-52
2022/04/06 08:12:00;;;;;;;7.97;3.60;;;13.00;99.90;;;;;;5091058;28;20461;-51
2022/04/06 08:14:26;;;;;;;6.70;3.50;;;13.40;99.90;;;;;;5079327;28;20900;-52
2022/04/06 08:16:52;;;;;;;8.18;3.13;;;13.90;99.90;;;;;;5081979;28;20410;-52
2022/04/06 08:19:17;;;;;;;6.60;2.63;;;14.10;99.90;;;;;;5078879;28;20423;-52
2022/04/06 08:21:43;;;;;;;6.37;3.10;;;14.00;99.90;;;;;;5082020;28;20849;-51
2022/04/06 08:24:09;;;;;;;6.07;2.60;;;13.70;99.90;;;;;;5085688;28;20769;-51
2022/04/06 08:26:35;;;;;;;7.80;2.50;;;13.60;99.90;;;;;;5086071;28;20427;-51
2022/04/06 08:29:01;;;;;;;5.50;2.30;;;13.30;99.90;;;;;;5083532;28;20851;-51
2022/04/06 08:31:26;;;;;;;6.50;2.20;;;13.10;99.90;;;;;;5085809;28;20485;-51
2022/04/06 08:33:52;;;;;;;5.50;2.17;;;12.80;99.90;;;;;;5090709;28;20473;-51
2022/04/06 08:36:18;;;;;;;6.60;2.10;;;12.50;99.90;;;;;;5074807;28;20459;-51
2022/04/06 08:38:44;;;;;;;5.13;2.17;;;12.40;99.90;;;;;;5079768;28;20489;-51
2022/04/06 08:41:10;;;;;;;5.63;2.20;;;12.70;99.90;;;;;;5083504;28;20410;-52
2022/04/06 08:43:36;;;;;;;5.03;1.60;;;12.80;99.90;;;;;;5068785;28;20941;-51
2022/04/06 08:46:02;;;;;;;6.40;1.80;;;12.40;99.90;;;;;;5081541;28;20391;-51
2022/04/06 08:48:29;;;;;;;5.43;1.90;;;12.50;99.90;;;;;;5081821;28;20386;-53
2022/04/06 08:50:59;;;;;;;4.57;1.27;;;12.50;99.90;;;;;;5077467;28;20411;-51
2022/04/06 08:53:24;;;;;;;5.30;1.58;;;12.60;99.90;;;;;;5085582;28;20417;-51
2022/04/06 08:55:50;;;;;;;4.20;1.10;;;12.90;99.90;;;;;;5084647;28;20871;-51
2022/04/06 08:58:16;;;;;;;4.45;1.20;;;13.50;99.90;;;;;;5083813;28;20410;-51
2022/04/06 09:00:41;;;;;;;5.28;1.20;;;14.10;99.90;;;;;;5081232;28;20446;-52
2022/04/06 09:03:07;;;;;;;4.70;1.13;;;14.30;99.90;;;;;;5081314;28;20406;-52
2022/04/06 09:05:34;;;;;;;4.90;1.90;;;15.20;99.90;;;;;;5079277;28;20398;-51
2022/04/06 09:08:02;;;;;;;5.47;1.20;;;16.00;99.90;;;;;;5083361;28;20440;-52
2022/04/06 09:10:34;;;;;;;5.00;1.25;;;16.00;99.90;;;;;;5082334;28;20897;-52
2022/04/06 09:13:10;;;;;;;4.38;1.00;;;15.40;99.90;;;;;;5085696;28;20477;-52
2022/04/06 09:15:35;;;;;;;4.88;1.20;;;16.30;99.90;;;;;;5082587;28;20403;-52
2022/04/06 09:18:01;;;;;;;5.80;1.30;;;17.30;99.90;;;;;;5080344;28;20411;-51
2022/04/06 09:20:29;;;;;;;4.72;1.10;;;17.50;99.90;;;;;;5084175;28;20438;-52
2022/04/06 09:22:55;;;;;;;4.50;1.10;;;16.50;99.90;;;;;;5081665;28;20390;-53
2022/04/06 09:25:21;;;;;;;5.53;1.40;;;15.80;99.90;;;;;;5080199;28;20741;-52
2022/04/06 09:27:47;;;;;;;5.03;1.15;;;14.90;99.90;;;;;;5081110;28;20501;-52
2022/04/06 09:30:13;;;;;;;4.63;1.10;;;14.50;99.90;;;;;;5083104;28;20556;-51
2022/04/06 09:32:42;;;;;;;6.43;2.80;;;14.40;99.90;;;;;;5088586;28;20382;-52
2022/04/06 09:35:28;;;;;;;4.80;1.00;;;;;;;;;;5079389;28;20397;-53
2022/04/06 09:38:23;;;;;;;4.53;1.20;;;16.00;99.90;;;;;;5084393;28;20458;-50
2022/04/06 09:41:00;;;;;;;4.80;1.30;;;17.90;99.90;;;;;;5082167;28;20763;-51
2022/04/06 09:43:27;;;;;;;4.97;1.10;;;18.00;99.90;;;;;;5079405;28;20404;-53
2022/04/06 09:48:55;;;;;;;4.65;1.38;;;15.50;99.90;;;;;;5081090;28;20405;-52
2022/04/06 09:51:22;;;;;;;4.95;0.90;;;15.00;99.90;;;;;;5082855;28;20405;-53
2022/04/06 09:53:50;;;;;;;5.28;1.40;;;14.90;99.90;;;;;;5083291;28;20484;-53
2022/04/06 09:56:17;;;;;;;4.90;1.60;;;15.00;99.90;;;;;;5085847;28;20386;-53
2022/04/06 09:58:45;;;;;;;4.80;1.10;;;15.20;99.90;;;;;;5086708;28;20755;-53
2022/04/06 10:01:15;;;;;;;4.53;1.00;;;15.50;99.90;;;;;;5083100;28;20413;-52
2022/04/06 10:03:48;;;;;;;8.10;1.00;;;15.50;99.90;;;;;;5079303;28;20437;-53
2022/04/06 10:06:14;;;;;;;6.45;1.00;;;15.70;99.90;;;;;;5081341;28;20514;-53
2022/04/06 10:08:42;;;;;;;8.15;1.20;;;15.60;99.90;;;;;;5083160;28;20462;-53
2022/04/06 10:11:08;;;;;;;4.40;1.20;;;15.20;99.90;;;;;;5064905;28;20424;-53
2022/04/06 10:13:34;;;;;;;4.50;1.10;;;15.00;99.90;;;;;;5062933;28;20410;-53
2022/04/06 10:16:00;;;;;;;4.13;0.80;;;15.20;99.90;;;;;;5086290;28;20393;-53
2022/04/06 10:18:27;;;;;;;4.30;1.00;;;15.20;99.90;;;;;;5080740;28;20409;-54
2022/04/06 10:21:15;;;;;;;4.20;0.80;;;15.90;99.90;;;;;;5077937;28;20430;-54
2022/04/06 10:23:49;;;;;;;3.97;0.50;;;16.10;99.90;;;;;;5078743;28;20391;-55
2022/04/06 10:26:44;;;;;;;8.93;1.10;;;17.30;99.90;;;;;;5083949;28;20456;-51
2022/04/06 10:29:10;;;;;;;4.10;0.60;;;17.30;99.90;;;;;;5088634;28;20863;-53
2022/04/06 10:31:36;;;;;;;4.50;0.63;;;16.80;99.90;;;;;;5089611;28;20378;-55
2022/04/06 10:34:25;;;;;;;4.40;0.90;;;16.30;99.90;;;;;;5083160;28;20765;-53
2022/04/06 10:37:11;;;;;;;4.25;0.80;;;15.70;99.90;;;;;;5084922;28;20442;-52
2022/04/06 10:39:51;;;;;;;4.70;0.77;;;15.60;99.90;;;;;;5082692;28;20737;-54
2022/04/06 10:42:37;;;;;;;4.60;1.00;;;15.60;99.90;;;;;;5088647;28;20422;-53
2022/04/06 10:45:29;;;;;;;5.20;1.00;;;16.40;99.90;;;;;;5083468;28;20416;-54
2022/04/06 10:48:16;;;;;;;4.00;0.73;;;17.60;99.90;;;;;;5063378;28;20442;-53
2022/04/06 10:50:43;;;;;;;4.00;0.80;;;16.20;99.90;;;;;;5079620;28;20430;-52
2022/04/06 10:53:18;;;;;;;4.30;0.90;;;16.20;99.90;;;;;;5085409;28;20731;-52
2022/04/06 10:56:17;;;;;;;4.18;0.98;;;15.80;99.90;;;;;;5053663;28;20911;-52
2022/04/06 10:58:57;;;;;;;5.35;1.30;;;15.50;99.90;;;;;;5071298;28;20461;-52
2022/04/06 11:01:29;;;;;;;4.20;1.20;;;16.00;99.90;;;;;;5068009;28;20410;-52
2022/04/06 11:04:03;;;;;;;4.10;1.30;;;15.60;99.90;;;;;;5069405;28;20443;-55
2022/04/06 11:06:40;;;;;;;4.32;1.45;;;15.30;99.90;;;;;;5070984;28;20904;-52
2022/04/06 11:12:17;;;;;;;4.32;1.35;;;16.30;99.90;;;;;;5072185;28;20456;-52
2022/04/06 11:14:48;;;;;;;5.32;1.20;;;16.00;99.90;;;;;;5080768;28;20382;-52
2022/04/06 11:17:34;;;;;;;6.20;1.13;;;16.00;99.90;;;;;;5091892;28;20395;-52
2022/04/06 11:20:15;;;;;;;4.40;1.40;;;16.30;99.90;;;;;;5089138;28;20445;-52
2022/04/06 11:22:43;;;;;;;5.03;1.30;;;15.70;99.90;;;;;;5089573;28;20445;-52
2022/04/06 11:25:22;;;;;;;5.30;1.30;;;15.70;99.90;;;;;;5061521;28;20388;-52
2022/04/06 11:27:49;;;;;;;4.60;1.50;;;15.50;99.90;;;;;;5091651;28;20423;-52
2022/04/06 11:30:23;;;;;;;4.50;1.40;;;15.80;99.90;;;;;;5090937;28;20398;-52
2022/04/06 11:32:57;;;;;;;4.60;1.70;;;15.70;99.90;;;;;;5091307;28;20438;-52
2022/04/06 11:35:35;;;;;;;4.30;1.38;;;16.00;99.90;;;;;;5090752;28;20386;-52
2022/04/06 11:38:06;;;;;;;4.97;1.38;;;16.10;99.90;;;;;;5090006;28;20418;-52
2022/04/06 11:40:32;;;;;;;4.00;0.90;;;16.60;99.90;;;;;;5071507;28;20764;-52
2022/04/06 11:43:02;;;;;;;4.20;1.00;;;16.80;99.90;;;;;;5073940;28;20387;-52
2022/04/06 11:45:30;;;;;;;4.30;1.27;;;17.10;99.90;;;;;;5072008;28;20728;-52
2022/04/06 11:47:57;;;;;;;4.40;1.40;;;17.00;99.90;;;;;;5089103;28;20735;-52
2022/04/06 11:50:34;;;;;;;4.38;1.45;;;17.00;99.90;;;;;;5090398;28;20744;-52
2022/04/06 11:53:18;;;;;;;4.60;1.85;;;17.20;99.90;;;;;;5091207;28;20795;-52
2022/04/06 11:55:49;;;;;;;5.90;2.10;;;17.50;99.90;;;;;;5091548;28;20842;-52
2022/04/06 11:58:32;;;;;;;5.30;2.10;;;17.30;99.90;;;;;;5088973;28;20382;-52
2022/04/06 12:01:09;;;;;;;4.40;1.80;;;17.00;99.90;;;;;;5090861;28;20910;-52
2022/04/06 12:03:40;;;;;;;4.70;1.80;;;16.90;99.90;;;;;;5090393;28;20465;-52
2022/04/06 12:06:07;;;;;;;4.50;1.80;;;16.80;99.90;;;;;;5089654;28;20869;-53
2022/04/06 12:08:34;;;;;;;4.70;1.60;;;16.60;99.90;;;;;;5083292;28;20881;-52
2022/04/06 12:11:00;;;;;;;4.55;1.42;;;16.60;99.90;;;;;;5086860;28;20524;-53
2022/04/06 12:13:33;;;;;;;5.10;1.50;;;16.80;99.90;;;;;;5086363;28;20400;-52
2022/04/06 12:15:59;;;;;;;5.15;1.75;;;17.00;99.90;;;;;;5082582;28;20393;-52
2022/04/06 12:18:27;;;;;;;4.40;1.50;;;16.80;99.30;;;;;;5064266;28;20781;-52
2022/04/06 12:20:54;;;;;;;4.40;1.50;;;16.90;99.90;;;;;;5071712;28;20431;-52
2022/04/06 12:23:23;;;;;;;4.93;1.60;;;16.80;99.90;;;;;;5061605;28;20393;-52
2022/04/06 12:25:49;;;;;;;4.20;1.50;;;16.70;99.90;;;;;;5067764;28;20398;-53
2022/04/06 12:28:19;;;;;;;4.40;1.70;;;16.60;99.90;;;;;;5069715;28;20561;-53
2022/04/06 12:30:57;;;;;;;4.40;1.70;;;16.90;99.50;;;;;;5052403;28;20435;-53
2022/04/06 12:33:40;;;;;;;4.40;1.50;;;16.90;99.80;;;;;;5069939;28;20396;-52
2022/04/06 12:36:09;;;;;;;4.30;1.60;;;17.10;99.90;;;;;;5070158;28;20407;-53
2022/04/06 12:38:37;;;;;;;4.68;1.55;;;18.40;99.90;;;;;;5051843;28;20454;-53
2022/04/06 12:41:13;;;;;;;5.00;1.80;;;17.00;99.90;;;;;;5066089;28;20842;-53
2022/04/06 12:43:49;;;;;;;5.10;1.90;;;17.10;99.90;;;;;;5069276;28;20419;-53
2022/04/06 12:46:38;;;;;;;4.40;1.80;;;17.20;99.40;;;;;;5069188;28;20877;-53
2022/04/06 12:49:24;;;;;;;6.30;2.00;;;17.00;99.10;;;;;;5051984;28;20400;-52
2022/04/06 12:52:18;;;;;;;4.70;1.70;;;17.30;99.00;;;;;;5069545;28;20478;-52
2022/04/06 12:54:52;;;;;;;4.40;1.77;;;17.10;99.90;;;;;;5051874;28;20399;-52
2022/04/06 12:57:29;;;;;;;4.70;1.70;;;16.80;98.70;;;;;;5064982;28;20416;-52